Time;durP1;ratioP1;P1;durP2;ratioP2;P2;SDS_P1;SDS_P2;PMS_P1;PMS_P2;Temp;Humidity;BMP_temperature;BMP_pressure;BME280_temperature;BME280_humidity;BME280_pressure;Samples;Min_cycle;Max_cycle;Signal;HPM_P1;HPM_P2
2024/02/24 00:01:39;;;;;;;7.97;2.63;;;;;;;4.04;76.44;96949.13;5031255;28;20037;-84
2024/02/24 00:04:05;;;;;;;5.85;2.60;;;;;;;4.01;76.49;96935.66;5003863;28;20030;-85
2024/02/24 00:06:31;;;;;;;3.42;2.45;;;;;;;4.22;76.17;96947.91;5035611;28;20029;-87
2024/02/24 00:08:56;;;;;;;9.55;2.88;;;;;;;4.13;75.77;96926.50;5035624;28;20034;-85
2024/02/24 00:11:21;;;;;;;4.10;2.55;;;;;;;4.06;75.76;96952.34;4995426;28;20038;-83
2024/02/24 00:13:47;;;;;;;7.55;3.67;;;;;;;4.28;76.09;96946.94;5034904;28;20066;-84
2024/02/24 00:16:14;;;;;;;8.27;2.45;;;;;;;4.05;75.59;96905.06;5040143;28;20033;-84
2024/02/24 00:18:39;;;;;;;7.68;2.42;;;;;;;4.16;75.78;96933.91;5023708;28;20030;-85
2024/02/24 00:21:05;;;;;;;6.30;2.15;;;;;;;4.00;75.60;96911.09;5033226;28;20079;-84
2024/02/24 00:23:30;;;;;;;5.68;2.72;;;;;;;4.18;75.36;96945.00;4999269;28;20025;-84
2024/02/24 00:25:55;;;;;;;5.68;2.47;;;;;;;4.30;75.40;96939.53;5028960;28;20036;-84
2024/02/24 00:28:21;;;;;;;6.53;2.10;;;;;;;4.03;75.74;96941.47;5016376;28;20041;-84
2024/02/24 00:30:46;;;;;;;5.47;2.63;;;;;;;4.13;75.57;96955.53;5040637;28;20062;-83
2024/02/24 00:33:12;;;;;;;5.88;2.22;;;;;;;4.21;75.69;96941.88;5040289;28;20033;-83
2024/02/24 00:35:39;;;;;;;7.82;2.00;;;;;;;4.03;75.35;96915.88;5042623;28;20397;-83
2024/02/24 00:38:04;;;;;;;4.72;2.38;;;;;;;4.03;75.22;96925.63;5034978;28;20029;-83
2024/02/24 00:40:30;;;;;;;4.20;2.22;;;;;;;4.25;75.33;96953.50;5020411;28;20030;-83
2024/02/24 00:42:55;;;;;;;4.32;2.40;;;;;;;4.09;75.02;96914.84;5031542;28;20021;-84
2024/02/24 00:45:21;;;;;;;6.32;1.80;;;;;;;4.33;74.90;96945.09;5011579;28;20034;-84
2024/02/24 00:47:46;;;;;;;7.38;1.90;;;;;;;4.24;74.90;96932.63;5017359;28;20108;-83
2024/02/24 00:50:12;;;;;;;3.72;2.50;;;;;;;4.11;75.54;96948.91;5016355;28;20034;-84
2024/02/24 00:52:37;;;;;;;5.68;2.60;;;;;;;4.22;75.06;96940.81;5033697;28;20112;-85
2024/02/24 00:55:03;;;;;;;5.53;2.25;;;;;;;4.24;74.76;96941.34;5030156;28;20029;-85
2024/02/24 00:57:28;;;;;;;5.47;1.90;;;;;;;3.99;75.08;96925.34;5042132;28;20033;-83
2024/02/24 00:59:54;;;;;;;4.00;1.80;;;;;;;4.24;75.51;96941.34;5033403;28;20068;-84
2024/02/24 01:02:19;;;;;;;4.45;1.85;;;;;;;4.16;75.72;96923.34;5029791;28;20083;-83
2024/02/24 01:04:45;;;;;;;6.93;2.17;;;;;;;4.28;74.91;96942.41;5006180;28;20440;-83
2024/02/24 01:07:12;;;;;;;8.10;3.00;;;;;;;4.11;74.67;96918.03;5036610;28;20030;-84
2024/02/24 01:09:38;;;;;;;3.75;2.30;;;;;;;3.90;75.21;96929.50;4997936;28;20060;-84
2024/02/24 01:12:04;;;;;;;2.92;1.95;;;;;;;3.98;75.34;96941.41;5014186;28;20034;-82
2024/02/24 01:14:29;;;;;;;4.30;2.30;;;;;;;4.03;75.99;96938.81;5037598;28;20079;-83
2024/02/24 01:16:55;;;;;;;5.22;2.47;;;;;;;4.08;75.99;96952.88;5030150;28;20034;-83
2024/02/24 01:19:20;;;;;;;5.28;2.20;;;;;;;4.10;75.18;96923.56;5031425;28;20473;-83
2024/02/24 01:21:45;;;;;;;9.73;2.28;;;;;;;4.04;75.31;96943.84;5015006;28;20058;-84
2024/02/24 01:24:13;;;;;;;4.65;2.53;;;;;;;3.85;74.91;96884.59;5025311;28;20032;-83
2024/02/24 01:26:38;;;;;;;6.50;2.40;;;;;;;4.15;74.46;96934.94;5031171;28;20037;-85
2024/02/24 01:29:04;;;;;;;7.03;2.50;;;;;;;4.09;75.06;96941.25;5037788;28;20476;-83
2024/02/24 01:31:30;;;;;;;7.35;2.33;;;;;;;4.07;74.84;96938.06;5033295;28;20109;-84
2024/02/24 01:33:55;;;;;;;4.10;2.22;;;;;;;4.00;75.03;96934.06;5033849;28;20132;-84
2024/02/24 01:36:20;;;;;;;5.47;2.45;;;;;;;3.96;74.96;96928.50;5027641;28;20030;-83
2024/02/24 01:38:46;;;;;;;6.78;2.45;;;;;;;3.66;74.86;96872.88;5028975;28;20036;-84
2024/02/24 01:41:11;;;;;;;11.63;4.22;;;;;;;3.88;75.06;96915.78;5029854;28;20115;-83
2024/02/24 01:43:39;;;;;;;4.60;2.55;;;;;;;3.99;74.80;96943.81;5034310;28;20515;-83
2024/02/24 01:46:07;;;;;;;3.17;2.58;;;;;;;3.72;74.84;96900.88;5036566;28;20416;-83
2024/02/24 01:48:32;;;;;;;6.18;2.25;;;;;;;3.90;75.12;96932.16;5015982;28;20110;-84
2024/02/24 01:50:59;;;;;;;4.22;2.40;;;;;;;3.88;75.12;96926.31;5031483;28;20045;-83
2024/02/24 01:53:25;;;;;;;3.42;1.92;;;;;;;3.71;74.75;96904.56;5028689;28;20037;-84
2024/02/24 01:55:51;;;;;;;6.47;2.55;;;;;;;3.76;75.28;96912.50;5032795;28;20456;-83
2024/02/24 01:58:18;;;;;;;7.82;2.75;;;;;;;3.71;74.86;96920.38;5036757;28;20039;-84
2024/02/24 02:00:45;;;;;;;10.32;3.53;;;;;;;3.71;74.59;96933.59;5024507;28;20029;-84
2024/02/24 02:03:10;;;;;;;3.75;2.33;;;;;;;3.76;75.26;96929.13;5007351;28;20071;-83
2024/02/24 02:05:36;;;;;;;4.63;2.03;;;;;;;3.45;75.42;96905.41;5037694;28;20067;-84
2024/02/24 02:08:01;;;;;;;2.40;2.10;;;;;;;3.65;75.13;96940.63;5018873;28;20037;-83
2024/02/24 02:10:55;;;;;;;5.05;2.38;;;;;;;3.60;75.59;96934.53;5038466;28;20044;-83
2024/02/24 02:13:21;;;;;;;5.07;2.30;;;;;;;3.61;75.33;96936.13;5030299;28;20436;-84
2024/02/24 02:15:50;;;;;;;6.18;2.08;;;;;;;3.41;75.43;96897.19;5009203;28;20029;-83
2024/02/24 02:18:15;;;;;;;3.17;1.90;;;;;;;3.51;74.93;96917.56;5034208;28;20033;-83
2024/02/24 02:20:40;;;;;;;6.43;2.63;;;;;;;3.69;74.72;96954.16;5014848;28;20048;-84
2024/02/24 02:23:06;;;;;;;8.27;2.42;;;;;;;3.67;75.36;96940.38;5014560;28;20546;-83
2024/02/24 02:25:32;;;;;;;6.47;2.20;;;;;;;3.59;74.96;96941.66;5032647;28;20061;-85
2024/02/24 02:27:57;;;;;;;5.40;2.83;;;;;;;3.48;75.48;96924.16;5031852;28;20040;-84
2024/02/24 02:30:22;;;;;;;5.72;2.05;;;;;;;3.49;74.82;96930.22;5030977;28;20033;-85
2024/02/24 02:32:48;;;;;;;4.30;2.58;;;;;;;3.31;74.87;96905.00;5030845;28;20065;-84
2024/02/24 02:35:13;;;;;;;5.10;2.10;;;;;;;3.57;74.96;96941.09;5034887;28;20124;-84
2024/02/24 02:37:39;;;;;;;8.10;2.47;;;;;;;3.54;75.05;96940.78;5031750;28;20065;-84
2024/02/24 02:40:05;;;;;;;6.40;2.17;;;;;;;3.44;75.07;96935.44;5032343;28;20065;-84
2024/02/24 02:42:30;;;;;;;4.88;2.60;;;;;;;3.54;74.64;96943.44;5008382;28;20037;-84
2024/02/24 02:44:55;;;;;;;5.28;2.38;;;;;;;3.57;75.32;96954.28;5037745;28;20026;-84
2024/02/24 02:47:21;;;;;;;12.80;3.05;;;;;;;3.55;75.40;96947.66;5036031;28;20029;-83
2024/02/24 02:49:46;;;;;;;5.18;2.58;;;;;;;3.51;74.95;96939.47;5032518;28;20041;-83
2024/02/24 02:52:11;;;;;;;4.22;2.10;;;;;;;3.46;75.00;96936.78;5003269;28;20500;-83
2024/02/24 02:54:37;;;;;;;5.95;2.40;;;;;;;3.50;75.27;96958.97;5034567;28;20029;-83
2024/02/24 02:57:02;;;;;;;2.72;2.40;;;;;;;3.44;75.45;96952.06;5034841;28;20404;-83
2024/02/24 02:59:28;;;;;;;7.18;2.80;;;;;;;3.29;75.25;96917.66;5020249;28;20041;-85
2024/02/24 03:01:54;;;;;;;3.80;1.90;;;;;;;3.34;75.08;96945.91;5035962;28;20038;-84
2024/02/24 03:04:20;;;;;;;5.72;2.53;;;;;;;3.37;75.58;96946.19;5028154;28;20033;-84
2024/02/24 03:06:46;;;;;;;6.25;2.78;;;;;;;3.33;75.24;96958.28;5032091;28;20105;-85
2024/02/24 03:09:11;;;;;;;3.08;2.78;;;;;;;3.11;76.24;96944.34;5037044;28;20445;-85
2024/02/24 03:11:36;;;;;;;4.40;2.05;;;;;;;3.27;76.15;96964.56;5029178;28;20037;-85
2024/02/24 03:14:03;;;;;;;5.28;1.83;;;;;;;3.20;76.01;96947.31;5038217;28;20499;-84
2024/02/24 03:16:28;;;;;;;3.50;1.88;;;;;;;2.95;76.21;96924.94;5031675;28;20022;-84
2024/02/24 03:18:54;;;;;;;3.17;2.35;;;;;;;2.96;76.23;96937.06;5035329;28;20025;-84
2024/02/24 03:21:26;;;;;;;3.15;2.22;;;;;;;3.14;76.30;96946.50;5018282;28;20495;-83
2024/02/24 03:23:52;;;;;;;9.23;2.42;;;;;;;2.78;76.31;96926.03;5032072;28;20059;-83
2024/02/24 03:26:17;;;;;;;5.25;2.30;;;;;;;3.14;76.57;96948.31;5030977;28;20021;-84
2024/02/24 03:28:43;;;;;;;3.85;2.22;;;;;;;3.04;76.45;96941.09;5032226;28;20155;-84
2024/02/24 03:31:08;;;;;;;3.65;2.80;;;;;;;3.11;76.57;96917.97;5022948;28;20119;-84
2024/02/24 03:33:34;;;;;;;4.82;2.30;;;;;;;3.18;75.84;96937.03;5034215;28;20616;-85
2024/02/24 03:36:01;;;;;;;9.50;2.08;;;;;;;3.39;76.53;96964.38;5041152;28;20060;-84
2024/02/24 03:38:26;;;;;;;5.43;1.98;;;;;;;3.41;76.29;96962.28;5034272;28;20143;-83
2024/02/24 03:40:51;;;;;;;5.80;2.60;;;;;;;3.11;76.13;96928.53;5032269;28;20484;-83
2024/02/24 03:43:17;;;;;;;4.53;2.53;;;;;;;3.39;76.50;96973.09;5033381;28;20034;-83
2024/02/24 03:45:42;;;;;;;5.05;2.63;;;;;;;3.24;76.67;96951.84;5032463;28;20029;-83
2024/02/24 03:48:07;;;;;;;5.20;2.78;;;;;;;3.14;76.64;96932.50;5018404;28;20039;-85
2024/02/24 03:50:33;;;;;;;7.13;2.92;;;;;;;3.04;76.39;96918.19;5008357;28;20084;-85
2024/02/24 03:52:58;;;;;;;7.75;2.63;;;;;;;3.15;76.99;96963.88;5032670;28;20037;-83
2024/02/24 03:55:26;;;;;;;5.30;2.63;;;;;;;3.10;76.63;96948.03;5034854;28;20080;-85
2024/02/24 03:57:51;;;;;;;9.45;2.80;;;;;;;3.28;76.61;96963.50;5017471;28;20025;-83
2024/02/24 04:00:17;;;;;;;4.65;2.20;;;;;;;3.35;76.96;96969.38;5026026;28;20053;-84
2024/02/24 04:02:43;;;;;;;5.38;2.30;;;;;;;3.19;76.52;96946.53;5029468;28;20128;-84
2024/02/24 04:05:08;;;;;;;4.07;2.63;;;;;;;3.38;77.05;96979.44;5033310;28;20025;-84
2024/02/24 04:07:34;;;;;;;3.33;2.30;;;;;;;3.23;76.73;96958.19;5031240;28;20029;-84
2024/02/24 04:09:59;;;;;;;10.80;2.47;;;;;;;3.43;76.74;96976.81;5038275;28;20038;-85
2024/02/24 04:12:24;;;;;;;5.88;2.95;;;;;;;3.35;77.03;96979.91;5037026;28;20028;-84
2024/02/24 04:14:50;;;;;;;4.88;2.55;;;;;;;3.28;76.93;96979.31;5025723;28;20025;-83
2024/02/24 04:17:15;;;;;;;6.70;2.30;;;;;;;3.42;76.95;96990.28;5018284;28;20052;-84
2024/02/24 04:19:40;;;;;;;4.00;2.67;;;;;;;3.19;76.92;96962.34;5036902;28;20056;-83
2024/02/24 04:22:06;;;;;;;13.70;4.63;;;;;;;3.15;77.41;96973.63;5018925;28;20036;-83
2024/02/24 04:24:31;;;;;;;6.18;2.90;;;;;;;3.21;77.82;96993.75;5035960;28;20069;-83
2024/02/24 04:26:57;;;;;;;6.00;2.65;;;;;;;3.27;77.42;97000.66;5034766;28;20099;-84
2024/02/24 04:29:22;;;;;;;4.13;2.58;;;;;;;3.41;76.81;96999.22;5034606;28;20106;-85
2024/02/24 04:31:47;;;;;;;4.60;3.25;;;;;;;3.18;76.67;96967.88;5032328;28;20028;-85
2024/02/24 04:34:13;;;;;;;8.65;2.47;;;;;;;3.19;77.15;96969.47;5034994;28;20675;-85
2024/02/24 04:36:42;;;;;;;6.63;2.78;;;;;;;3.20;77.09;96965.78;5018215;28;20035;-85
2024/02/24 04:39:09;;;;;;;6.65;2.63;;;;;;;3.30;77.19;96997.53;5030233;28;20025;-85
2024/02/24 04:41:35;;;;;;;8.65;3.15;;;;;;;3.14;77.26;96970.22;5040264;28;20029;-84
2024/02/24 04:44:00;;;;;;;7.32;3.15;;;;;;;3.12;76.79;96989.94;5034599;28;20556;-84
2024/02/24 04:46:25;;;;;;;3.45;2.25;;;;;;;3.21;77.28;96999.78;5034613;28;20029;-85
2024/02/24 04:48:51;;;;;;;5.90;3.00;;;;;;;3.08;77.14;96994.13;5039697;28;20034;-84
2024/02/24 04:51:16;;;;;;;6.43;3.03;;;;;;;3.25;77.15;97006.19;5032451;28;20414;-84
2024/02/24 04:53:42;;;;;;;8.93;2.72;;;;;;;3.09;77.27;96972.78;5035481;28;20036;-85
2024/02/24 04:56:09;;;;;;;11.60;3.08;;;;;;;3.21;77.95;97002.41;5024945;28;20060;-84
2024/02/24 04:58:35;;;;;;;6.30;2.58;;;;;;;3.27;77.58;97001.47;5038868;28;20067;-84
2024/02/24 05:01:00;;;;;;;5.25;2.67;;;;;;;3.20;77.45;96997.41;5036689;28;20033;-85
2024/02/24 05:03:26;;;;;;;7.75;3.28;;;;;;;3.09;77.98;97000.97;5030391;28;20029;-85
2024/02/24 05:05:51;;;;;;;8.85;2.90;;;;;;;3.14;77.53;97003.66;5033046;28;20468;-84
2024/02/24 05:08:16;;;;;;;11.52;3.17;;;;;;;3.01;77.98;96968.72;5037424;28;20104;-84
2024/02/24 05:10:42;;;;;;;4.82;2.63;;;;;;;3.26;77.40;97001.69;5035434;28;20432;-85
2024/02/24 05:13:07;;;;;;;5.78;3.03;;;;;;;3.12;77.87;96989.94;5040966;28;20063;-85
2024/02/24 05:15:32;;;;;;;7.60;3.40;;;;;;;3.07;77.40;96971.44;5042390;28;20036;-84
2024/02/24 05:17:58;;;;;;;5.43;3.00;;;;;;;3.18;77.62;97010.03;5040264;28;20033;-84
2024/02/24 05:20:23;;;;;;;10.23;3.22;;;;;;;2.96;77.99;96978.44;5032291;28;20036;-85
2024/02/24 05:22:48;;;;;;;6.88;3.30;;;;;;;3.27;77.79;97024.38;5025527;28;20401;-85
2024/02/24 05:25:14;;;;;;;11.43;3.75;;;;;;;3.22;77.58;97027.75;5034946;28;20048;-84
2024/02/24 05:27:39;;;;;;;4.85;2.95;;;;;;;3.14;77.68;97020.28;5023374;28;20041;-84
2024/02/24 05:30:05;;;;;;;3.78;2.58;;;;;;;3.16;77.65;97034.00;5015224;28;20164;-85
2024/02/24 05:32:31;;;;;;;10.65;3.35;;;;;;;3.12;77.48;97032.13;5027625;28;20030;-84
2024/02/24 05:34:57;;;;;;;6.80;3.05;;;;;;;3.02;78.03;97023.03;5033955;28;20033;-84
2024/02/24 05:37:22;;;;;;;5.90;3.00;;;;;;;3.02;78.23;97030.94;5015800;28;20392;-85
2024/02/24 05:39:48;;;;;;;5.68;3.00;;;;;;;2.74;78.65;97007.41;5036609;28;20056;-85
2024/02/24 05:42:14;;;;;;;9.48;3.30;;;;;;;2.72;79.06;97024.47;5012039;28;20036;-84
2024/02/24 05:44:41;;;;;;;7.05;3.08;;;;;;;2.95;79.37;97043.50;5041326;28;20412;-84
2024/02/24 05:47:07;;;;;;;6.38;3.42;;;;;;;2.96;78.99;97044.28;5012536;28;20496;-84
2024/02/24 05:49:32;;;;;;;6.53;3.58;;;;;;;2.99;79.12;97049.88;5035269;28;20164;-84
2024/02/24 05:51:57;;;;;;;6.15;2.83;;;;;;;2.98;79.15;97043.00;5032127;28;20037;-84
2024/02/24 05:54:23;;;;;;;4.20;3.10;;;;;;;2.70;79.34;97014.19;5012803;28;20030;-84
2024/02/24 05:56:48;;;;;;;7.97;3.63;;;;;;;2.92;78.57;97030.81;5026271;28;20041;-84
2024/02/24 05:59:14;;;;;;;6.95;2.90;;;;;;;3.11;79.08;97052.38;5033561;28;20021;-84
2024/02/24 06:01:39;;;;;;;6.10;3.58;;;;;;;2.92;78.79;97022.13;5033848;28;20053;-84
2024/02/24 06:04:04;;;;;;;6.82;3.22;;;;;;;3.03;78.57;97040.44;5025043;28;20026;-85
2024/02/24 06:06:30;;;;;;;9.07;3.70;;;;;;;3.00;79.10;97043.56;5019131;28;20096;-85
2024/02/24 06:08:55;;;;;;;8.07;3.25;;;;;;;3.12;78.95;97066.38;5016520;28;20612;-85
2024/02/24 06:11:21;;;;;;;13.27;4.70;;;;;;;2.91;79.15;97039.75;5031113;28;20036;-85
2024/02/24 06:13:46;;;;;;;12.00;3.60;;;;;;;2.98;79.26;97076.47;5015560;28;20057;-84
2024/02/24 06:16:12;;;;;;;4.82;3.22;;;;;;;2.94;79.96;97078.81;5034571;28;20039;-84
2024/02/24 06:18:37;;;;;;;10.65;3.85;;;;;;;2.90;79.94;97064.53;5036282;28;20040;-83
2024/02/24 06:21:03;;;;;;;5.57;3.63;;;;;;;2.96;79.33;97066.19;5032215;28;20112;-85
2024/02/24 06:23:29;;;;;;;9.63;3.67;;;;;;;3.02;79.90;97070.47;5033783;28;20037;-85
2024/02/24 06:25:55;;;;;;;9.07;4.03;;;;;;;2.98;79.13;97061.47;5041142;28;20032;-84
2024/02/24 06:28:21;;;;;;;7.82;3.65;;;;;;;3.09;79.11;97080.03;5038995;28;20029;-85
2024/02/24 06:30:46;;;;;;;6.50;3.83;;;;;;;2.99;79.12;97070.16;5000954;28;20029;-83
2024/02/24 06:33:12;;;;;;;8.10;4.30;;;;;;;2.95;79.75;97056.66;5038667;28;20033;-84
2024/02/24 06:35:37;;;;;;;6.38;3.60;;;;;;;3.00;79.10;97080.47;5044506;28;20515;-85
2024/02/24 06:38:02;;;;;;;7.22;3.80;;;;;;;3.12;79.53;97095.38;5043004;28;20064;-85
2024/02/24 06:40:28;;;;;;;12.60;4.20;;;;;;;3.22;79.99;97106.84;5031786;28;20033;-84
2024/02/24 06:42:54;;;;;;;8.68;3.72;;;;;;;3.08;79.69;97083.72;5002274;28;20034;-84
2024/02/24 06:45:20;;;;;;;4.78;3.33;;;;;;;3.13;80.32;97097.75;5033706;28;20124;-84
2024/02/24 06:47:45;;;;;;;4.07;2.88;;;;;;;3.10;80.56;97090.34;5003123;28;20097;-84
2024/02/24 06:50:11;;;;;;;9.80;3.55;;;;;;;3.18;80.04;97102.28;5019271;28;20030;-85
2024/02/24 06:52:36;;;;;;;8.20;3.78;;;;;;;3.15;80.26;97106.22;5016529;28;20033;-84
2024/02/24 06:55:01;;;;;;;7.45;3.67;;;;;;;3.08;80.33;97086.34;5036494;28;20094;-83
2024/02/24 06:57:27;;;;;;;7.28;3.67;;;;;;;3.12;80.30;97096.16;5039686;28;20053;-83
2024/02/24 06:59:52;;;;;;;4.82;3.38;;;;;;;3.32;80.56;97124.63;5035211;28;20064;-84
2024/02/24 07:02:18;;;;;;;9.88;3.80;;;;;;;3.30;80.76;97124.06;5033052;28;20112;-83
2024/02/24 07:04:43;;;;;;;7.30;3.65;;;;;;;3.32;80.13;97108.81;5030469;28;20551;-83
2024/02/24 07:07:09;;;;;;;11.68;3.72;;;;;;;3.30;80.14;97111.66;5032023;28;20109;-83
2024/02/24 07:09:34;;;;;;;7.55;3.47;;;;;;;3.51;80.02;97116.16;5033627;28;20039;-83
2024/02/24 07:12:00;;;;;;;11.98;3.60;;;;;;;3.40;80.67;97119.72;5032169;28;20034;-83
2024/02/24 07:14:25;;;;;;;6.80;4.18;;;;;;;3.51;80.21;97131.19;5030946;28;20784;-83
2024/02/24 07:16:50;;;;;;;8.77;3.58;;;;;;;3.30;80.45;97118.81;5026877;28;20049;-85
2024/02/24 07:19:16;;;;;;;6.15;3.60;;;;;;;3.36;81.14;97120.47;5034032;28;20053;-84
2024/02/24 07:21:44;;;;;;;8.88;3.08;;;;;;;3.10;81.67;97092.19;5018846;28;20029;-84
2024/02/24 07:24:10;;;;;;;10.25;4.25;;;;;;;3.21;82.69;97141.34;5015996;28;20113;-84
2024/02/24 07:26:42;;;;;;;8.95;3.50;;;;;;;3.56;81.42;97149.72;5033751;28;20100;-85
2024/02/24 07:29:08;;;;;;;10.95;3.72;;;;;;;3.57;81.00;97153.94;5035596;28;20029;-84
2024/02/24 07:31:35;;;;;;;7.00;4.00;;;;;;;3.54;81.33;97146.50;5035561;28;20048;-83
2024/02/24 07:34:01;;;;;;;7.88;3.97;;;;;;;3.28;81.81;97131.41;5031685;28;20078;-85
2024/02/24 07:36:26;;;;;;;9.77;4.60;;;;;;;3.46;81.77;97139.03;5034991;28;20041;-84
2024/02/24 07:38:53;;;;;;;6.20;4.03;;;;;;;3.41;81.44;97125.78;5035984;28;20048;-84
2024/02/24 07:41:18;;;;;;;6.63;4.40;;;;;;;3.50;80.91;97146.22;5039742;28;20032;-84
2024/02/24 07:43:44;;;;;;;9.13;4.07;;;;;;;3.68;80.62;97169.66;5017054;28;20389;-85
2024/02/24 07:46:10;;;;;;;13.18;4.20;;;;;;;3.53;81.42;97135.19;5035844;28;20025;-84
2024/02/24 07:48:37;;;;;;;6.45;4.22;;;;;;;3.48;81.37;97139.59;5013817;28;20034;-84
2024/02/24 07:51:03;;;;;;;7.75;5.10;;;;;;;3.77;81.18;97173.47;5008064;28;20091;-85
2024/02/24 07:53:29;;;;;;;10.80;4.30;;;;;;;3.58;81.96;97155.56;5012777;28;20037;-85
2024/02/24 07:55:54;;;;;;;9.23;4.43;;;;;;;3.73;81.35;97155.72;5034564;28;20056;-85
2024/02/24 07:58:20;;;;;;;7.40;4.32;;;;;;;3.64;82.39;97175.66;4998691;28;20045;-84
2024/02/24 08:00:45;;;;;;;5.45;4.32;;;;;;;3.70;81.45;97148.28;5014696;28;20033;-85
2024/02/24 08:03:10;;;;;;;11.63;4.80;;;;;;;3.88;80.92;97163.00;4995147;28;20057;-84
2024/02/24 08:05:36;;;;;;;7.10;3.70;;;;;;;4.01;81.19;97184.56;5017497;28;20098;-84
2024/02/24 08:08:01;;;;;;;7.22;4.55;;;;;;;4.03;80.79;97179.81;5020048;28;20030;-83
2024/02/24 08:10:26;;;;;;;8.50;4.13;;;;;;;4.09;80.71;97188.59;5028226;28;20057;-83
2024/02/24 08:12:52;;;;;;;9.68;5.38;;;;;;;4.06;81.49;97195.19;5017886;28;20048;-84
2024/02/24 08:15:17;;;;;;;5.00;4.10;;;;;;;4.01;81.10;97181.91;5037494;28;20473;-84
2024/02/24 08:17:42;;;;;;;8.52;3.95;;;;;;;4.06;81.22;97195.19;5022143;28;20037;-84
2024/02/24 08:20:08;;;;;;;7.60;3.90;;;;;;;3.98;80.36;97160.47;5020201;28;20057;-84
2024/02/24 08:22:34;;;;;;;4.60;3.65;;;;;;;4.09;80.41;97163.00;5036494;28;20053;-84
2024/02/24 08:25:02;;;;;;;9.95;4.43;;;;;;;4.27;80.76;97194.34;5015800;28;20053;-84
2024/02/24 08:27:28;;;;;;;8.68;4.32;;;;;;;3.99;81.31;97177.91;5022455;28;20037;-84
2024/02/24 08:29:53;;;;;;;5.50;4.20;;;;;;;4.03;80.93;97181.66;5001374;28;20033;-84
2024/02/24 08:32:18;;;;;;;9.18;3.92;;;;;;;4.21;80.96;97208.53;5035342;28;20502;-83
2024/02/24 08:34:44;;;;;;;15.68;4.38;;;;;;;4.25;81.10;97208.84;5021037;28;20090;-84
2024/02/24 08:37:10;;;;;;;9.77;5.22;;;;;;;4.09;81.46;97214.97;5036052;28;20101;-84
2024/02/24 08:39:35;;;;;;;6.57;4.25;;;;;;;4.14;81.54;97201.84;5017463;28;20042;-83
2024/02/24 08:42:02;;;;;;;11.40;4.25;;;;;;;3.95;81.97;97200.56;5020413;28;20029;-84
2024/02/24 08:44:28;;;;;;;5.85;4.05;;;;;;;4.14;81.48;97204.47;5016483;28;20087;-85
2024/02/24 08:46:53;;;;;;;10.55;5.15;;;;;;;4.20;81.91;97198.22;5037798;28;20033;-84
2024/02/24 08:49:18;;;;;;;21.00;6.03;;;;;;;4.63;81.04;97216.59;5040087;28;20064;-86
2024/02/24 08:51:44;;;;;;;61.13;7.50;;;;;;;4.81;81.76;97215.44;5039037;28;20427;-84
2024/02/24 08:54:10;;;;;;;30.13;8.38;;;;;;;4.89;82.03;97212.34;5028192;28;20029;-84
2024/02/24 08:56:36;;;;;;;41.80;11.20;;;;;;;4.66;80.91;97204.72;5039970;28;20029;-85
2024/02/24 08:59:01;;;;;;;9.82;5.78;;;;;;;4.54;81.71;97189.06;5023272;28;20034;-84
2024/02/24 09:01:27;;;;;;;38.20;6.68;;;;;;;5.10;82.56;97229.97;5040544;28;20041;-85
2024/02/24 09:03:55;;;;;;;44.72;6.18;;;;;;;5.37;80.62;97224.59;5032473;28;20451;-85
2024/02/24 09:06:20;;;;;;;17.73;4.90;;;;;;;4.70;80.23;97213.75;5037517;28;20148;-86
2024/02/24 09:08:46;;;;;;;16.70;3.50;;;;;;;5.11;80.20;97224.41;5022446;28;20064;-86
2024/02/24 09:11:11;;;;;;;10.30;3.00;;;;;;;4.98;79.77;97238.06;5034759;28;20037;-87
2024/02/24 09:13:37;;;;;;;12.40;3.17;;;;;;;5.05;80.15;97229.91;5037823;28;20038;-84
2024/02/24 09:16:02;;;;;;;12.55;3.33;;;;;;;5.02;78.63;97225.16;5043377;28;20072;-86
2024/02/24 09:18:30;;;;;;;21.63;4.18;;;;;;;4.73;79.28;97192.91;5031334;28;20523;-87
2024/02/24 09:20:55;;;;;;;10.52;3.22;;;;;;;4.95;79.05;97233.28;5015006;28;20382;-85
2024/02/24 09:23:21;;;;;;;14.40;3.55;;;;;;;5.04;79.19;97237.06;5013149;28;20022;-86
2024/02/24 09:25:46;;;;;;;8.15;4.25;;;;;;;4.73;79.65;97189.47;5036157;28;20061;-86
2024/02/24 09:28:12;;;;;;;10.90;3.70;;;;;;;5.11;79.04;97218.34;5034289;28;20126;-87
2024/02/24 09:30:37;;;;;;;5.38;3.17;;;;;;;5.15;78.75;97237.94;5037703;28;20048;-87
2024/02/24 09:33:03;;;;;;;8.27;4.22;;;;;;;5.16;79.60;97236.88;5034171;28;20056;-86
2024/02/24 09:35:28;;;;;;;6.70;3.65;;;;;;;5.03;80.15;97229.38;5034816;28;20018;-86
2024/02/24 09:37:53;;;;;;;10.48;3.70;;;;;;;5.18;79.43;97243.50;5017146;28;20030;-86
2024/02/24 09:40:19;;;;;;;9.02;4.00;;;;;;;4.66;79.99;97154.53;5030877;28;20025;-85
2024/02/24 09:42:44;;;;;;;11.45;4.72;;;;;;;5.30;79.45;97260.00;5036032;28;20116;-86
2024/02/24 09:45:13;;;;;;;10.70;4.10;;;;;;;5.28;79.52;97259.47;5035150;28;20044;-84
2024/02/24 09:47:43;;;;;;;7.30;3.88;;;;;;;5.13;79.84;97230.25;5035851;28;20034;-86
2024/02/24 09:50:12;;;;;;;13.30;5.22;;;;;;;5.41;78.95;97263.53;5018815;28;20030;-86
2024/02/24 09:52:39;;;;;;;10.32;4.38;;;;;;;5.49;78.35;97255.09;5035703;28;20037;-85
2024/02/24 09:55:05;;;;;;;6.68;3.63;;;;;;;5.85;77.54;97261.44;5031299;28;20017;-86
2024/02/24 09:57:35;;;;;;;9.38;4.72;;;;;;;5.61;78.41;97266.31;5036183;28;20048;-86
2024/02/24 10:00:02;;;;;;;13.27;5.03;;;;;;;5.57;77.67;97238.75;5037366;28;20538;-86
2024/02/24 10:02:27;;;;;;;11.85;5.07;;;;;;;5.58;76.90;97213.88;5035933;28;20029;-87
2024/02/24 10:04:53;;;;;;;9.88;4.22;;;;;;;5.69;78.69;97270.31;5032155;28;20029;-86
2024/02/24 10:07:18;;;;;;;8.70;3.95;;;;;;;5.31;78.67;97216.63;5009353;28;20037;-86
2024/02/24 10:09:44;;;;;;;5.72;3.22;;;;;;;5.04;78.05;97173.63;5028852;28;20025;-86
2024/02/24 10:12:10;;;;;;;4.93;3.47;;;;;;;5.54;77.73;97231.34;5032207;28;20097;-86
2024/02/24 10:14:35;;;;;;;7.25;2.95;;;;;;;5.80;78.60;97282.56;5034332;28;20049;-87
2024/02/24 10:17:02;;;;;;;5.35;3.38;;;;;;;5.73;78.33;97276.69;5022768;28;20592;-87
2024/02/24 10:19:28;;;;;;;5.07;3.10;;;;;;;5.79;78.18;97279.09;5017422;28;20480;-86
2024/02/24 10:21:53;;;;;;;6.03;2.80;;;;;;;5.43;78.51;97244.75;5021624;28;20080;-87
2024/02/24 10:24:20;;;;;;;4.57;2.70;;;;;;;5.53;79.37;97290.59;5004980;28;20683;-87
2024/02/24 10:26:51;;;;;;;6.45;2.63;;;;;;;5.56;79.25;97284.78;5036121;28;20042;-87
2024/02/24 10:29:16;;;;;;;4.00;2.50;;;;;;;5.43;79.24;97279.94;5051141;28;20028;-87
2024/02/24 10:31:43;;;;;;;6.57;2.80;;;;;;;5.54;79.40;97294.84;5030888;28;20034;-86
2024/02/24 10:34:09;;;;;;;5.40;2.50;;;;;;;5.79;79.31;97286.25;5032994;28;20042;-86
2024/02/24 10:36:34;;;;;;;7.47;2.80;;;;;;;5.54;78.97;97233.97;5039629;28;20044;-85
2024/02/24 10:39:02;;;;;;;17.85;5.10;;;;;;;5.64;80.37;97299.38;5036207;28;20042;-87
2024/02/24 10:41:29;;;;;;;6.65;2.63;;;;;;;5.73;79.75;97284.63;5032351;28;20034;-87
2024/02/24 10:43:58;;;;;;;7.40;2.60;;;;;;;5.37;79.26;97227.25;5034974;28;20037;-86
2024/02/24 10:46:23;;;;;;;10.40;3.70;;;;;;;5.19;79.02;97216.03;5019056;28;20040;-87
2024/02/24 10:48:49;;;;;;;10.30;2.80;;;;;;;5.51;78.53;97218.59;5007826;28;20033;-84
2024/02/24 10:51:15;;;;;;;9.82;3.47;;;;;;;5.95;78.77;97286.13;5030232;28;20028;-84
2024/02/24 10:53:45;;;;;;;9.65;3.88;;;;;;;5.97;78.95;97289.31;5011747;28;20056;-84
2024/02/24 10:56:11;;;;;;;9.38;3.83;;;;;;;5.85;78.06;97264.09;5016682;28;20033;-84
2024/02/24 10:58:37;;;;;;;14.20;4.65;;;;;;;5.60;79.89;97272.66;5036056;28;20104;-87
2024/02/24 11:01:04;;;;;;;12.15;4.55;;;;;;;5.76;79.42;97236.47;5030712;28;20605;-86
2024/02/24 11:03:31;;;;;;;47.25;7.00;;;;;;;6.10;80.19;97266.84;5017946;28;20519;-86
2024/02/24 11:05:56;;;;;;;50.28;7.30;;;;;;;6.13;81.71;97290.19;5018628;28;20519;-86
2024/02/24 11:08:35;;;;;;;5.15;3.58;;;;;;;5.95;81.90;97277.38;5030469;28;20061;-82
2024/02/24 11:11:05;;;;;;;15.32;4.13;;;;;;;6.05;80.19;97272.91;5028299;28;20022;-82
2024/02/24 11:13:31;;;;;;;11.88;3.08;;;;;;;6.30;79.33;97288.13;5026608;28;20065;-82
2024/02/24 11:15:58;;;;;;;19.90;4.30;;;;;;;5.99;80.76;97289.03;5011721;28;20037;-82
2024/02/24 11:18:48;;;;;;;13.40;4.70;;;;;;;5.86;80.83;97295.59;5031047;28;20057;-82
2024/02/24 11:21:17;;;;;;;5.38;2.88;;;;;;;5.53;82.37;97306.47;5023287;28;20026;-82
2024/02/24 11:23:44;;;;;;;4.57;2.75;;;;;;;5.15;82.61;97272.31;5026485;28;20462;-82
2024/02/24 11:26:09;;;;;;;6.20;2.17;;;;;;;5.47;81.92;97310.13;5022226;28;20124;-81
2024/02/24 11:28:44;;;;;;;5.22;1.95;;;;;;;5.39;82.23;97294.72;5028995;28;20104;-82
2024/02/24 11:31:16;;;;;;;3.08;1.73;;;;;;;5.51;82.51;97307.75;4998805;28;20739;-82
2024/02/24 11:33:41;;;;;;;4.55;2.33;;;;;;;5.53;83.03;97314.41;5029558;28;20029;-82